Hovedside
METAR-TAF:

METAR-TAF

Lufthavner :

Vilhelmina, Sverige

breddegrad: 64-34-44N, lengdegrad: 016-50-00E, høyde over havet: 347 m

Gjeldene værobservasjon

Denne rapporten ble laget for 34 minutter siden, klokken 19:20 UTC
Vind 11 kt fra Sør-sørøst, skiftende mellom Øst-sørøst og Sør-sørvest
Temperatur 17°C
Luftfuktighet 77%
Trykk 1006 hPa
Sikt 10 km eller mer
Overskyet i en høyde av 5300 ft

METAR: ESNV 161920Z 16011KT 120V200 9999 OVC053 17/13 Q1006

Tid: 21:54 (19:54 UTC)


TAF: fraværende

Værobservasjoner og værvarsel for over 4000 flyplasser (METAR- og TAF-rapporter).

Tilgjengelige stasjoner er representert av de røde og gule prikkene på kartet.

Hold musepekeren over prikken for å se navnet på stasjonen.

Klikk så for å se værobservasjoner og -varsler.

For å forandre kartet kan du klikke på den grønne knappen med svart kryss for å zoome inn, på den grønne knappen med strek for å zoome ut, eller på de grønne pilene for å se tilstøtende kart.


METAR-TAF: